Coos Bay, OR (97420)

6:27 PM PST on February 20, 2017 (GMT -0800)
Marshfield High School | | Change Station
Active Advisory: Areal Flood Watch Active Notice: Areal Flood Watch

Elev 100 ft 43.36 °N, 124.22 °W | Updated 30 seconds ago

Overcast
Overcast
48.2 °F
Feels Like 48 °F
N
1.0
Wind Variable Wind from ENE
Gusts 4.0 mph

Today
High -- | Low -- °F
--% Chance of Precip.
Yesterday
High -- | Low -- °F
Precip. -- in
Pressure 29.68 in
Visibility 8.0 miles
Clouds Scattered Clouds 3000 ft
Mostly Cloudy 3800 ft
Overcast 5500 ft
Windchill 48 °F
Dew Point 25 °F
Humidity 40%
Rainfall 0.43 in
Snow Depth Not available.
7:06 AM 5:54 PM
Waning Crescent, 29% visible
METAR KOTH 210215Z 09003KT 8SM SCT030 BKN038 OVC055 09/09 A2968 RMK AO1 BR P0002
Pressure 29.68 in
Visibility 8.0 miles
Clouds Scattered Clouds 3000 ft
Mostly Cloudy 3800 ft
Overcast 5500 ft
Windchill 48 °F
Dew Point 25 °F
Humidity 40%
Rainfall 0.43 in
Snow Depth Not available.
7:06 AM 5:54 PM
Waning Crescent, 29% visible
METAR KOTH 210215Z 09003KT 8SM SCT030 BKN038 OVC055 09/09 A2968 RMK AO1 BR P0002

Get Your Daily Forecast Email!

Thanks for signing up!

Be on the lookout for a verification email in your inbox.

You'll start receiving the daily forecast at 8 AM.

×

10-Day Weather Forecast

Almanac

Astronomy

Feb. 20, 2017 Rise Set
Actual Time
Civil Twilight
Nautical Twilight
Astronomical Twilight
Moon
Length of Visible Light
Length of Day
Tomorrow will be .
, % of the Moon is Illuminated

Today's Extremes

State Highs State Lows

Community

WunderPhotos

Upload Photos

1,962,540 photos uploaded!

WunderBlog® & News

Nearby

Air Quality

  Air Quality AQ Index Pollutant
Not available.

Snow Depth

Station Depth Elevation

Earthquake Activity

City Distance Mag. Time & Date
Minimum magnitude displayed is 2.5.

Coastal Water Temperatures

Place Temperature

Stations

Nearby Weather Stations

Station Location Temp. Windchill Dew Point Humidity Wind Precip. Elev Updated Type
                   

Watches & Warnings

Areal Flood Watch
Issued: 1:54 PM PST Feb. 20, 2017 – National Weather Service

... Flood Watch remains in effect through Tuesday morning...

The Flood Watch continues for

* a portion of southwest Oregon, including Curry County, extreme
southern Coos County and western Josephine County. This includes
the Illinois Valley and Curry County coast.

* Through 10 am PST Tuesday morning.

* The heaviest rain will occur along the South Coast and Coast
Range. Rainfall rates of a quarter inch per hour are expected.

* Heavy rain combined with some snow melt in higher elevations
will cause rises in streams and rivers and may cause small
streams to flood.

Precautionary/preparedness actions...

A Flood Watch means there is a potential for flooding based on
current forecasts.

You should monitor later forecasts and be alert for possible
flood warnings. Those living in areas prone to flooding should be
prepared to take action should flooding develop.